Dillsboro, IN (47018)

3:00 AM EST on November 26, 2014 (GMT -0500)
KINDILLS2 | Change Station
CLOSE
Current Station
Personal Weather Station
Location: Dillsboro, IN
Elevation: 840 ft
Nearby Weather Stations

Elev 840 ft 39.00 °N, 85.02 °W | Updated 5 seconds ago

Mostly Cloudy
Mostly Cloudy
25.5 °F
Feels Like 26 °F
N
0.0
Wind Variable Wind from North
Gusts 1.0 mph

Today
High -- | Low -- °F
--% Chance of Precip.
Yesterday
High -- | Low -- °F
Precip. -- in
7:34 AM 5:19 PM
Waxing Crescent, 17% visible
Pressure 30.14 in
Visibility 6.0 miles
Clouds Few 1200 ft
Windchill 26 °F
Dew Point 24 °F
Humidity 92%
Rainfall 0.00 in
Snow Depth Not available.
UV 0 out of 12
Pollen .10 out of 12
Air Quality Not available.
Flu Activity Not available.
METAR KCVG 260752Z 02004KT 6SM HZ FEW012 M02/M05 A3012 RMK AO2 SLP206 T10221050

More Conditions Fewer Conditions

Pressure 30.14 in
Visibility 6.0 miles
Clouds Few 1200 ft
Windchill 26 °F
Dew Point 24 °F
Humidity 92%
Rainfall 0.00 in
Snow Depth Not available.
UV 0 out of 12
Pollen .10 out of 12
Air Quality Not available.
Flu Activity Not available.
METAR KCVG 260752Z 02004KT 6SM HZ FEW012 M02/M05 A3012 RMK AO2 SLP206 T10221050

More Conditions Fewer Conditions

10-Day Weather Forecast

Almanac

Astronomy

Nov. 26, 2014 Rise Set
Actual Time
Civil Twilight
Nautical Twilight
Astronomical Twilight
Moon
Length of Visible Light
Length of Day
Tomorrow will be .
, % of the Moon is Illuminated

Today's Extremes

State Highs State Lows

Community

WunderPhotos

Upload Photos

1,773,694 photos uploaded!

WunderBlogs® & News

Nearby

Air Quality

  Air Quality AQ Index Pollutant
Not available.

Snow Depth

Station Depth Elevation

Earthquake Activity

City Distance Mag. Time & Date
Minimum magnitude displayed is 2.5.

Coastal Water Temperatures

Place Temperature

Nearby Weather Stations